createdAt,value
2023-05-08T00:00:49.706Z,99655.28
2023-05-08T00:03:17.180Z,99663.50
2023-05-08T00:05:44.306Z,99656.22
2023-05-08T00:08:11.357Z,99657.19
2023-05-08T00:10:38.722Z,99650.69
2023-05-08T00:13:06.037Z,99658.06
2023-05-08T00:15:33.127Z,99654.53
2023-05-08T00:18:01.101Z,99660.28
2023-05-08T00:20:29.006Z,99656.22
2023-05-08T00:22:57.889Z,99660.19
2023-05-08T00:25:25.539Z,99655.53
2023-05-08T00:27:52.599Z,99653.00
2023-05-08T00:30:19.916Z,99657.63
2023-05-08T00:32:47.446Z,99667.53
2023-05-08T00:35:14.616Z,99663.31
2023-05-08T00:37:43.696Z,99671.31
2023-05-08T00:40:12.265Z,99667.06
2023-05-08T00:42:39.814Z,99666.25
2023-05-08T00:45:07.799Z,99668.84
2023-05-08T00:47:35.578Z,99670.47
2023-05-08T00:50:03.089Z,99672.00
2023-05-08T00:52:32.853Z,99674.75
2023-05-08T00:55:02.268Z,99674.94
2023-05-08T00:57:32.449Z,99671.50
2023-05-08T01:00:01.741Z,99677.50
2023-05-08T01:02:31.637Z,99684.34
2023-05-08T01:04:59.043Z,99685.22
2023-05-08T01:07:27.554Z,99684.19
2023-05-08T01:09:54.759Z,99684.31
2023-05-08T01:12:30.075Z,99692.50
2023-05-08T01:15:14.574Z,99686.63
2023-05-08T01:17:56.331Z,99685.72
2023-05-08T01:20:27.328Z,99685.97
2023-05-08T01:23:31.924Z,99690.63
2023-05-08T01:26:23.601Z,99696.81
2023-05-08T01:29:27.818Z,99702.06
2023-05-08T01:32:16.877Z,99699.56
2023-05-08T01:34:51.502Z,99709.31
2023-05-08T01:37:30.178Z,99704.03
2023-05-08T01:40:08.129Z,99710.53
2023-05-08T01:42:48.098Z,99702.88
2023-05-08T01:45:23.400Z,99698.66
2023-05-08T01:48:00.917Z,99716.66
2023-05-08T01:50:35.634Z,99709.00
2023-05-08T01:53:08.861Z,99714.69
2023-05-08T01:55:37.651Z,99722.72
2023-05-08T01:58:09.762Z,99716.78
2023-05-08T02:00:40.233Z,99717.31
2023-05-08T02:03:09.480Z,99721.63
2023-05-08T02:05:40.358Z,99723.12
2023-05-08T02:08:11.340Z,99727.81
2023-05-08T02:10:40.085Z,99727.88
2023-05-08T02:13:10.327Z,99733.87
2023-05-08T02:15:39.637Z,99730.06
2023-05-08T02:18:09.217Z,99735.53
2023-05-08T02:20:38.673Z,99728.25
2023-05-08T02:23:06.686Z,99734.56
2023-05-08T02:25:35.681Z,99735.41
2023-05-08T02:28:03.534Z,99736.53
2023-05-08T02:30:31.146Z,99738.19
2023-05-08T02:33:00.818Z,99738.34
2023-05-08T02:35:31.493Z,99740.88
2023-05-08T02:38:00.678Z,99735.00
2023-05-08T02:40:29.727Z,99736.00
2023-05-08T02:42:57.673Z,99742.09
2023-05-08T02:45:28.889Z,99741.94
2023-05-08T02:48:53.102Z,99733.50
2023-05-08T02:51:37.954Z,99736.41
2023-05-08T02:54:09.224Z,99741.69
2023-05-08T02:56:48.566Z,99746.06
2023-05-08T02:59:54.238Z,99746.28
2023-05-08T03:02:24.574Z,99744.63
2023-05-08T03:05:00.203Z,99746.22
2023-05-08T03:07:33.798Z,99748.84
2023-05-08T03:10:05.399Z,99746.38
2023-05-08T03:12:36.305Z,99744.19
2023-05-08T03:15:21.561Z,99751.44
2023-05-08T03:17:54.783Z,99751.16
2023-05-08T03:20:24.886Z,99746.94
2023-05-08T03:22:54.179Z,99741.47
2023-05-08T03:25:22.418Z,99744.09
2023-05-08T03:27:52.042Z,99749.28
2023-05-08T03:30:20.901Z,99746.50
2023-05-08T03:32:53.206Z,99752.41
2023-05-08T03:35:22.204Z,99747.84
2023-05-08T03:37:49.410Z,99751.91
2023-05-08T03:40:16.559Z,99755.81
2023-05-08T03:42:44.494Z,99752.38
2023-05-08T03:45:14.125Z,99754.44
2023-05-08T03:47:42.486Z,99762.69
2023-05-08T03:50:11.018Z,99761.62
2023-05-08T03:52:38.535Z,99762.84
2023-05-08T03:55:06.371Z,99766.63
2023-05-08T03:57:57.956Z,99759.72
2023-05-08T04:01:06.885Z,99768.38
2023-05-08T04:03:46.586Z,99768.69
2023-05-08T04:06:30.717Z,99764.75
2023-05-08T04:09:08.097Z,99762.56
2023-05-08T04:11:35.114Z,99763.06
2023-05-08T04:14:07.099Z,99768.81
2023-05-08T04:16:48.345Z,99770.63
2023-05-08T04:19:22.329Z,99773.91
2023-05-08T04:21:51.302Z,99777.25
2023-05-08T04:24:20.165Z,99776.50
2023-05-08T04:26:48.683Z,99782.44
2023-05-08T04:29:17.046Z,99786.69
2023-05-08T04:31:45.470Z,99783.50
2023-05-08T04:34:12.796Z,99789.13
2023-05-08T04:36:40.413Z,99791.91
2023-05-08T04:39:08.018Z,99794.69
2023-05-08T04:41:35.624Z,99797.91
2023-05-08T04:44:04.430Z,99794.25
2023-05-08T04:46:31.924Z,99802.84
2023-05-08T04:48:59.143Z,99802.87
2023-05-08T04:51:28.056Z,99802.94
2023-05-08T04:53:55.945Z,99810.66
2023-05-08T04:56:23.073Z,99820.81
2023-05-08T04:58:51.149Z,99819.38
2023-05-08T05:01:19.819Z,99820.19
2023-05-08T05:03:47.096Z,99823.47
2023-05-08T05:06:14.167Z,99825.44
2023-05-08T05:08:43.495Z,99823.75
2023-05-08T05:11:10.731Z,99828.06
2023-05-08T05:13:37.881Z,99822.59
2023-05-08T05:16:05.752Z,99828.09
2023-05-08T05:18:33.001Z,99830.28
2023-05-08T05:21:00.159Z,99831.53
2023-05-08T05:23:28.579Z,99836.44
2023-05-08T05:25:55.852Z,99832.78
2023-05-08T05:28:24.597Z,99838.00
2023-05-08T05:30:52.315Z,99839.97
2023-05-08T05:33:19.413Z,99838.84
2023-05-08T05:35:46.942Z,99836.97
2023-05-08T05:38:14.335Z,99836.47
2023-05-08T05:40:41.419Z,99850.00
2023-05-08T05:43:08.576Z,99847.56
2023-05-08T05:45:36.277Z,99844.25
2023-05-08T05:48:03.695Z,99851.03
2023-05-08T05:50:31.512Z,99848.22
2023-05-08T05:52:59.620Z,99849.41
2023-05-08T05:55:26.945Z,99849.00
2023-05-08T05:57:54.025Z,99850.53
2023-05-08T06:00:22.219Z,99848.22
2023-05-08T06:02:49.906Z,99850.84
2023-05-08T06:05:19.059Z,99857.44
2023-05-08T06:07:46.457Z,99853.16
2023-05-08T06:10:13.889Z,99851.81
2023-05-08T06:12:41.877Z,99847.81
2023-05-08T06:15:09.978Z,99855.69
2023-05-08T06:17:37.540Z,99852.25
2023-05-08T06:20:05.506Z,99855.16
2023-05-08T06:22:32.605Z,99859.88
2023-05-08T06:24:59.988Z,99862.47
2023-05-08T06:27:27.094Z,99861.38
2023-05-08T06:29:54.262Z,99856.81
2023-05-08T06:32:22.373Z,99860.50
2023-05-08T06:34:49.551Z,99859.56
2023-05-08T06:37:16.671Z,99868.19
2023-05-08T06:39:44.172Z,99858.47
2023-05-08T06:42:11.390Z,99857.38
2023-05-08T06:44:38.795Z,99864.59
2023-05-08T06:47:06.716Z,99867.06
2023-05-08T06:49:36.070Z,99870.75
2023-05-08T06:52:03.541Z,99866.09
2023-05-08T06:54:30.976Z,99868.66
2023-05-08T06:56:58.104Z,99867.22
2023-05-08T06:59:25.331Z,99867.78
2023-05-08T07:01:52.726Z,99862.97
2023-05-08T07:04:19.955Z,99870.50
2023-05-08T07:06:47.000Z,99875.31
2023-05-08T07:09:15.015Z,99875.28
2023-05-08T07:11:42.391Z,99871.66
2023-05-08T07:14:09.474Z,99875.81
2023-05-08T07:16:37.837Z,99879.53
2023-05-08T07:19:05.165Z,99879.16
2023-05-08T07:21:32.364Z,99885.88
2023-05-08T07:23:59.782Z,99879.66
2023-05-08T07:26:27.403Z,99875.00
2023-05-08T07:28:54.548Z,99877.66
2023-05-08T07:31:22.221Z,99879.41
2023-05-08T07:33:49.451Z,99878.59
2023-05-08T07:36:16.791Z,99879.87
2023-05-08T07:38:44.259Z,99878.84
2023-05-08T07:41:11.616Z,99878.47
2023-05-08T07:43:39.706Z,99883.44
2023-05-08T07:46:07.494Z,99877.97
2023-05-08T07:48:34.526Z,99880.16
2023-05-08T07:51:01.709Z,99876.91
2023-05-08T07:53:29.091Z,99882.28
2023-05-08T07:55:56.175Z,99875.47
2023-05-08T07:58:23.874Z,99881.13
2023-05-08T08:00:51.389Z,99886.81
2023-05-08T08:03:18.735Z,99885.34
2023-05-08T08:05:45.924Z,99879.03
2023-05-08T08:08:13.012Z,99880.06
2023-05-08T08:10:40.422Z,99877.16
2023-05-08T08:13:07.592Z,99870.31
2023-05-08T08:15:34.641Z,99877.31
2023-05-08T08:18:02.094Z,99876.78
2023-05-08T08:20:29.462Z,99876.19
2023-05-08T08:22:56.597Z,99869.06
2023-05-08T08:25:24.553Z,99876.41
2023-05-08T08:27:51.804Z,99880.50
2023-05-08T08:30:19.117Z,99872.53
2023-05-08T08:32:46.871Z,99855.47
2023-05-08T08:35:14.552Z,99865.59
2023-05-08T08:37:42.080Z,99864.03
2023-05-08T08:40:10.027Z,99869.44
2023-05-08T08:42:37.138Z,99861.72
2023-05-08T08:45:04.557Z,99866.03
2023-05-08T08:47:41.308Z,99871.16
2023-05-08T08:50:12.726Z,99876.34
2023-05-08T08:52:54.428Z,99877.69
2023-05-08T08:55:23.553Z,99872.25
2023-05-08T08:58:07.736Z,99870.94
2023-05-08T09:00:37.302Z,99873.81
2023-05-08T09:03:09.380Z,99870.94
2023-05-08T09:05:37.028Z,99876.75
2023-05-08T09:08:05.501Z,99872.34
2023-05-08T09:10:32.868Z,99878.16
2023-05-08T09:13:00.124Z,99874.94
2023-05-08T09:15:27.917Z,99874.59
2023-05-08T09:17:55.045Z,99871.84
2023-05-08T09:20:22.872Z,99865.63
2023-05-08T09:22:52.833Z,99867.59
2023-05-08T09:25:20.188Z,99867.94
2023-05-08T09:27:47.223Z,99865.28
2023-05-08T09:30:14.701Z,99857.22
2023-05-08T09:32:44.544Z,99860.19
2023-05-08T09:35:13.286Z,99865.28
2023-05-08T09:37:44.171Z,99868.16
2023-05-08T09:40:22.316Z,99865.75
2023-05-08T09:42:51.608Z,99859.62
2023-05-08T09:45:32.782Z,99858.88
2023-05-08T09:48:00.281Z,99856.25
2023-05-08T09:50:27.839Z,99844.78
2023-05-08T09:52:55.465Z,99846.47
2023-05-08T09:55:22.915Z,99855.06
2023-05-08T09:57:58.596Z,99856.78
2023-05-08T10:00:27.533Z,99856.56
2023-05-08T10:03:01.523Z,99841.63
2023-05-08T10:05:31.833Z,99842.19
2023-05-08T10:08:18.679Z,99837.53
2023-05-08T10:10:46.115Z,99848.69
2023-05-08T10:13:14.027Z,99848.16
2023-05-08T10:15:43.113Z,99846.16
2023-05-08T10:18:12.201Z,99841.94
2023-05-08T10:20:42.449Z,99837.16
2023-05-08T10:23:14.555Z,99834.78
2023-05-08T10:25:46.759Z,99828.72
2023-05-08T10:28:23.363Z,99825.22
2023-05-08T10:30:52.092Z,99827.94
2023-05-08T10:33:21.563Z,99832.91
2023-05-08T10:35:49.139Z,99825.69
2023-05-08T10:38:17.228Z,99823.41
2023-05-08T10:40:45.001Z,99820.44
2023-05-08T10:43:12.617Z,99811.94
2023-05-08T10:45:40.389Z,99812.44
2023-05-08T10:48:35.906Z,99818.16
2023-05-08T10:51:10.148Z,99819.19
2023-05-08T10:53:42.689Z,99808.13
2023-05-08T10:56:10.564Z,99807.53
2023-05-08T10:58:39.393Z,99812.28
2023-05-08T11:01:09.388Z,99804.78
2023-05-08T11:03:45.505Z,99809.56
2023-05-08T11:06:13.674Z,99801.84
2023-05-08T11:08:47.871Z,99802.34
2023-05-08T11:11:23.972Z,99812.28
2023-05-08T11:13:56.572Z,99806.47
2023-05-08T11:16:54.958Z,99812.28
2023-05-08T11:19:24.695Z,99800.28
2023-05-08T11:22:14.663Z,99797.47
2023-05-08T11:25:00.391Z,99809.28
2023-05-08T11:27:49.149Z,99795.66
2023-05-08T11:30:37.246Z,99800.44
2023-05-08T11:33:04.691Z,99790.03
2023-05-08T11:35:41.572Z,99790.91
2023-05-08T11:38:24.082Z,99793.00
2023-05-08T11:41:03.236Z,99789.47
2023-05-08T11:43:33.412Z,99789.06
2023-05-08T11:46:04.303Z,99787.19
2023-05-08T11:48:32.767Z,99785.41
2023-05-08T11:51:00.588Z,99785.97
2023-05-08T11:53:28.912Z,99785.09
2023-05-08T11:55:56.165Z,99781.06
2023-05-08T11:58:23.373Z,99786.38
2023-05-08T12:00:50.948Z,99788.50
2023-05-08T12:03:20.685Z,99800.47
2023-05-08T12:05:49.559Z,99803.44
2023-05-08T12:08:18.198Z,99790.81
2023-05-08T12:10:52.582Z,99782.56
2023-05-08T12:13:22.202Z,99780.44
2023-05-08T12:15:55.220Z,99777.56
2023-05-08T12:18:23.621Z,99775.44
2023-05-08T12:20:57.081Z,99772.00
2023-05-08T12:23:29.549Z,99780.31
2023-05-08T12:26:01.895Z,99774.66
2023-05-08T12:28:29.732Z,99779.94
2023-05-08T12:30:57.316Z,99779.00
2023-05-08T12:33:25.285Z,99779.25
2023-05-08T12:35:52.492Z,99780.03
2023-05-08T12:38:19.813Z,99782.13
2023-05-08T12:40:53.097Z,99776.91
2023-05-08T12:43:20.477Z,99781.25
2023-05-08T12:45:52.582Z,99775.06
2023-05-08T12:48:20.559Z,99780.56
2023-05-08T12:50:47.942Z,99787.44
2023-05-08T12:53:21.733Z,99778.94
2023-05-08T12:55:55.695Z,99784.28
2023-05-08T12:58:31.023Z,99782.66
2023-05-08T13:01:13.285Z,99788.69
2023-05-08T13:03:41.488Z,99778.84
2023-05-08T13:06:21.121Z,99784.81
2023-05-08T13:08:55.015Z,99788.88
2023-05-08T13:11:31.438Z,99776.81
2023-05-08T13:13:58.683Z,99772.47
2023-05-08T13:16:26.488Z,99771.16
2023-05-08T13:18:53.637Z,99782.22
2023-05-08T13:21:20.873Z,99773.97
2023-05-08T13:23:48.231Z,99774.94
2023-05-08T13:26:15.235Z,99772.31
2023-05-08T13:28:42.364Z,99776.34
2023-05-08T13:31:09.636Z,99777.88
2023-05-08T13:33:38.265Z,99779.59
2023-05-08T13:36:05.454Z,99782.94
2023-05-08T13:38:32.814Z,99783.09
2023-05-08T13:40:59.806Z,99776.72
2023-05-08T13:43:26.907Z,99772.47
2023-05-08T13:45:54.377Z,99771.06
2023-05-08T13:48:21.424Z,99781.84
2023-05-08T13:50:48.526Z,99762.31
2023-05-08T13:53:15.884Z,99784.06
2023-05-08T13:55:42.922Z,99770.19
2023-05-08T13:58:09.997Z,99780.94
2023-05-08T14:00:37.324Z,99785.22
2023-05-08T14:03:04.814Z,99778.56
2023-05-08T14:05:32.517Z,99778.69
2023-05-08T14:07:59.574Z,99775.62
2023-05-08T14:10:27.218Z,99786.19
2023-05-08T14:12:54.311Z,99781.06
2023-05-08T14:15:22.164Z,99778.97
2023-05-08T14:17:50.761Z,99782.88
2023-05-08T14:20:17.885Z,99772.78
2023-05-08T14:22:46.207Z,99767.28
2023-05-08T14:25:14.966Z,99786.63
2023-05-08T14:27:42.212Z,99785.56
2023-05-08T14:30:09.881Z,99796.19
2023-05-08T14:32:37.335Z,99789.38
2023-05-08T14:35:04.532Z,99795.03
2023-05-08T14:37:31.646Z,99788.88
2023-05-08T14:39:59.483Z,99788.25
2023-05-08T14:42:26.682Z,99801.81
2023-05-08T14:44:53.947Z,99805.16
2023-05-08T14:47:21.467Z,99802.97
2023-05-08T14:49:48.486Z,99797.72
2023-05-08T14:52:15.895Z,99797.09
2023-05-08T14:54:43.455Z,99796.34
2023-05-08T14:57:10.758Z,99799.16
2023-05-08T14:59:43.555Z,99792.59
2023-05-08T15:02:18.103Z,99800.72
2023-05-08T15:04:46.092Z,99797.34
2023-05-08T15:07:13.204Z,99800.34
2023-05-08T15:09:40.639Z,99801.53
2023-05-08T15:12:07.818Z,99797.09
2023-05-08T15:14:34.941Z,99815.84
2023-05-08T15:17:02.502Z,99801.53
2023-05-08T15:19:29.480Z,99803.47
2023-05-08T15:21:56.505Z,99805.63
2023-05-08T15:24:23.819Z,99791.97
2023-05-08T15:26:50.908Z,99804.34
2023-05-08T15:29:18.018Z,99801.28
2023-05-08T15:31:45.360Z,99804.59
2023-05-08T15:34:12.591Z,99804.00
2023-05-08T15:36:39.661Z,99804.47
2023-05-08T15:39:07.025Z,99809.72
2023-05-08T15:41:34.295Z,99808.03
2023-05-08T15:44:01.688Z,99803.28
2023-05-08T15:46:29.135Z,99802.09
2023-05-08T15:48:56.210Z,99790.84
2023-05-08T15:51:23.343Z,99794.03
2023-05-08T15:53:52.286Z,99789.50
2023-05-08T15:56:24.574Z,99791.25
2023-05-08T15:58:52.708Z,99785.63
2023-05-08T16:01:20.740Z,99786.38
2023-05-08T16:03:48.134Z,99792.19
2023-05-08T16:06:15.151Z,99792.69
2023-05-08T16:08:42.145Z,99788.09
2023-05-08T16:11:09.534Z,99788.47
2023-05-08T16:13:36.570Z,99780.09
2023-05-08T16:16:05.258Z,99778.03
2023-05-08T16:18:32.690Z,99785.47
2023-05-08T16:20:59.779Z,99784.59
2023-05-08T16:25:54.672Z,99786.56
2023-05-08T16:28:21.906Z,99794.72
2023-05-08T16:30:48.959Z,99784.88
2023-05-08T16:33:16.213Z,99792.16
2023-05-08T16:35:43.306Z,99790.09
2023-05-08T16:38:10.430Z,99790.81
2023-05-08T16:40:37.742Z,99799.09
2023-05-08T16:43:04.889Z,99797.28
2023-05-08T16:45:32.009Z,99811.50
2023-05-08T16:47:59.442Z,99812.22
2023-05-08T16:50:26.524Z,99813.56
2023-05-08T16:52:53.566Z,99815.63
2023-05-08T16:55:20.976Z,99822.03
2023-05-08T16:57:48.077Z,99819.94
2023-05-08T17:00:15.500Z,99825.59
2023-05-08T17:02:43.070Z,99830.69
2023-05-08T17:05:10.145Z,99836.56
2023-05-08T17:07:37.226Z,99835.41
2023-05-08T17:10:04.908Z,99844.09
2023-05-08T17:12:31.960Z,99842.81
2023-05-08T17:14:59.015Z,99858.50
2023-05-08T17:17:26.449Z,99858.44
2023-05-08T17:19:53.465Z,99865.81
2023-05-08T17:22:20.653Z,99869.47
2023-05-08T17:24:48.126Z,99871.16
2023-05-08T17:27:15.154Z,99876.44
2023-05-08T17:29:42.190Z,99883.56
2023-05-08T17:32:09.654Z,99887.37
2023-05-08T17:34:37.474Z,99888.72
2023-05-08T17:37:04.596Z,99892.09
2023-05-08T17:39:31.931Z,99896.44
2023-05-08T17:41:58.970Z,99901.91
2023-05-08T17:44:26.206Z,99904.56
2023-05-08T17:46:53.477Z,99899.22
2023-05-08T17:49:20.502Z,99907.97
2023-05-08T17:51:47.592Z,99914.91
2023-05-08T17:54:14.981Z,99923.75
2023-05-08T17:56:42.071Z,99931.47
2023-05-08T17:59:09.140Z,99932.91
2023-05-08T18:01:36.551Z,99937.50
2023-05-08T18:04:04.221Z,99939.94
2023-05-08T18:06:31.487Z,99942.94
2023-05-08T18:08:58.510Z,99942.28
2023-05-08T18:11:27.054Z,99943.56
2023-05-08T18:13:54.313Z,99945.38
2023-05-08T18:16:22.354Z,99955.91
2023-05-08T18:18:50.268Z,99956.16
2023-05-08T18:21:17.725Z,99959.25
2023-05-08T18:23:44.998Z,99973.25
2023-05-08T18:26:16.839Z,99974.44
2023-05-08T18:28:44.532Z,99982.12
2023-05-08T18:31:13.332Z,99983.47
2023-05-08T18:33:40.850Z,99990.97
2023-05-08T18:36:08.058Z,99998.12
2023-05-08T18:38:36.368Z,99996.38
2023-05-08T18:41:05.146Z,99996.69
2023-05-08T18:43:32.275Z,100002.44
2023-05-08T18:46:00.585Z,100002.31
2023-05-08T18:48:29.402Z,100012.16
2023-05-08T18:50:58.634Z,100007.63
2023-05-08T18:53:25.957Z,100014.00
2023-05-08T18:55:53.373Z,100016.16
2023-05-08T18:58:20.525Z,100012.88
2023-05-08T19:00:47.705Z,100015.88
2023-05-08T19:03:15.361Z,100023.13
2023-05-08T19:05:42.512Z,100031.59
2023-05-08T19:08:09.763Z,100046.59
2023-05-08T19:10:37.163Z,100051.56
2023-05-08T19:13:04.318Z,100041.81
2023-05-08T19:15:31.437Z,100047.41
2023-05-08T19:17:58.912Z,100045.84
2023-05-08T19:20:26.139Z,100050.37
2023-05-08T19:22:53.823Z,100050.69
2023-05-08T19:25:21.791Z,100054.50
2023-05-08T19:27:49.023Z,100061.59
2023-05-08T19:30:16.412Z,100057.25
2023-05-08T19:32:43.863Z,100062.22
2023-05-08T19:35:10.970Z,100068.03
2023-05-08T19:37:38.088Z,100064.28
2023-05-08T19:40:06.392Z,100065.00
2023-05-08T19:42:33.526Z,100069.12
2023-05-08T19:45:01.316Z,100071.13
2023-05-08T19:47:28.745Z,100067.34
2023-05-08T19:49:55.991Z,100065.78
2023-05-08T19:52:23.116Z,100066.12
2023-05-08T19:54:50.586Z,100058.47
2023-05-08T19:57:17.676Z,100066.22
2023-05-08T19:59:44.766Z,100059.56
2023-05-08T20:02:12.188Z,100064.84
2023-05-08T20:05:10.486Z,100065.13
2023-05-08T20:07:29.470Z,100078.59
2023-05-08T20:09:56.855Z,100075.63
2023-05-08T20:12:23.828Z,100072.09
2023-05-08T20:14:50.867Z,100070.31
2023-05-08T20:17:18.226Z,100067.72
2023-05-08T20:19:45.281Z,100067.25
2023-05-08T20:22:12.325Z,100074.53
2023-05-08T20:24:39.597Z,100074.75
2023-05-08T20:27:06.708Z,100072.34
2023-05-08T20:29:33.969Z,100067.69
2023-05-08T20:32:02.249Z,100065.03
2023-05-08T20:34:29.906Z,100074.00
2023-05-08T20:36:59.233Z,100067.16
2023-05-08T20:39:27.108Z,100063.66
2023-05-08T20:41:54.176Z,100070.16
2023-05-08T20:44:21.254Z,100063.91
2023-05-08T20:46:48.989Z,100065.72
2023-05-08T20:49:17.191Z,100067.44
2023-05-08T20:51:44.394Z,100068.44
2023-05-08T20:54:11.683Z,100060.03
2023-05-08T20:56:38.788Z,100072.47
2023-05-08T20:59:05.897Z,100075.34
2023-05-08T21:01:33.353Z,100070.81
2023-05-08T21:04:00.416Z,100073.00
2023-05-08T21:06:27.591Z,100066.84
2023-05-08T21:08:54.998Z,100067.81
2023-05-08T21:11:22.209Z,100059.44
2023-05-08T21:13:49.358Z,100066.50
2023-05-08T21:16:16.867Z,100065.03
2023-05-08T21:18:44.088Z,100058.28
2023-05-08T21:21:18.831Z,100060.84
2023-05-08T21:23:46.391Z,100058.28
2023-05-08T21:26:13.448Z,100055.06
2023-05-08T21:28:40.841Z,100049.78
2023-05-08T21:31:08.265Z,100052.53
2023-05-08T21:33:35.657Z,100049.12
2023-05-08T21:36:02.827Z,100059.09
2023-05-08T21:38:30.236Z,100046.72
2023-05-08T21:40:57.368Z,100061.09
2023-05-08T21:43:24.457Z,100055.78
2023-05-08T21:45:51.819Z,100049.50
2023-05-08T21:48:19.481Z,100055.81
2023-05-08T21:50:46.451Z,100052.50
2023-05-08T21:53:13.752Z,100051.63
2023-05-08T21:55:41.025Z,100050.00
2023-05-08T21:58:08.101Z,100047.47
2023-05-08T22:00:35.522Z,100045.72
2023-05-08T22:03:02.977Z,100043.06
2023-05-08T22:05:30.049Z,100032.84
2023-05-08T22:07:57.473Z,100039.25
2023-05-08T22:10:25.637Z,100043.47
2023-05-08T22:12:52.775Z,100033.19
2023-05-08T22:15:29.675Z,100039.56
2023-05-08T22:17:58.744Z,100036.03
2023-05-08T22:20:26.020Z,100043.19
2023-05-08T22:22:53.404Z,100042.47
2023-05-08T22:25:21.949Z,100042.38
2023-05-08T22:27:49.257Z,100034.44
2023-05-08T22:30:16.322Z,100032.72
2023-05-08T22:32:52.505Z,100034.44
2023-05-08T22:35:21.336Z,100037.81
2023-05-08T22:37:48.638Z,100033.41
2023-05-08T22:40:15.736Z,100038.66
2023-05-08T22:42:43.825Z,100039.66
2023-05-08T22:45:12.195Z,100038.97
2023-05-08T22:47:39.795Z,100037.22
2023-05-08T22:50:09.147Z,100033.13
2023-05-08T22:52:36.710Z,100038.50
2023-05-08T22:55:04.974Z,100042.31
2023-05-08T22:57:32.076Z,100046.12
2023-05-08T22:59:59.401Z,100039.09
2023-05-08T23:02:32.097Z,100039.19
2023-05-08T23:05:00.234Z,100042.28
2023-05-08T23:07:27.509Z,100042.09
2023-05-08T23:09:54.503Z,100042.00
2023-05-08T23:12:21.966Z,100036.81
2023-05-08T23:14:48.981Z,100045.31
2023-05-08T23:17:16.003Z,100046.50
2023-05-08T23:19:43.352Z,100043.22
2023-05-08T23:22:10.334Z,100040.59
2023-05-08T23:24:37.459Z,100046.28
2023-05-08T23:27:04.734Z,100034.06
2023-05-08T23:29:31.761Z,100037.22
2023-05-08T23:31:59.846Z,100037.34
2023-05-08T23:34:27.196Z,100045.22
2023-05-08T23:36:54.230Z,100040.53
2023-05-08T23:39:21.338Z,100037.06
2023-05-08T23:41:48.621Z,100036.38
2023-05-08T23:44:15.681Z,100030.37
2023-05-08T23:46:42.793Z,100026.44
2023-05-08T23:49:10.300Z,100029.19
2023-05-08T23:51:37.264Z,100025.88
2023-05-08T23:54:04.983Z,100021.47
2023-05-08T23:56:32.651Z,100021.47
2023-05-08T23:58:59.692Z,100018.28
